Terminal Aerodrome Forecast
Issued by NWS

Home | Current Version | Previous Version | Graphics & Text | Print | Product List | Glossary On
Versions: 1 2 3 4 5 6 7 8 9 10 11 12 13 14 15 16
000
FTUS43 KICT 221700
TAFRSL
TAF
KRSL 221723Z 2218/2318 18012G20KT P6SM BKN250
     FM230100 17008KT P6SM BKN150
     FM231200 18012G20KT P6SM VCSH SCT040 OVC070=

USA.gov is the U.S. government's official web portal to all federal, state and local government web resources and services.